Time;durP1;ratioP1;P1;durP2;ratioP2;P2;SDS_P1;SDS_P2;PMS_P1;PMS_P2;Temp;Humidity;BMP_temperature;BMP_pressure;BME280_temperature;BME280_humidity;BME280_pressure;Samples;Min_cycle;Max_cycle;Signal;HPM_P1;HPM_P2
2023/07/10 00:01:06;;;;;;;7.43;2.75;;;;;;;19.49;100.00;102124.06;5009527;28;20034;-63
2023/07/10 00:03:32;;;;;;;6.70;2.78;;;;;;;19.48;100.00;102133.91;5010955;28;20026;-62
2023/07/10 00:05:57;;;;;;;6.57;2.20;;;;;;;19.47;100.00;102139.31;5011574;28;20034;-62
2023/07/10 00:08:23;;;;;;;5.60;2.38;;;;;;;19.54;100.00;102132.72;5010510;28;20037;-64
2023/07/10 00:10:50;;;;;;;5.57;2.40;;;;;;;19.57;100.00;102136.06;5010226;28;20113;-62
2023/07/10 00:13:21;;;;;;;7.32;2.65;;;;;;;19.64;100.00;102135.78;5011286;28;20394;-63
2023/07/10 00:15:47;;;;;;;11.02;2.72;;;;;;;19.69;100.00;102131.91;5024046;28;20030;-63
2023/07/10 00:18:15;;;;;;;5.95;2.60;;;;;;;19.73;100.00;102127.28;5011347;28;20030;-62
2023/07/10 00:20:41;;;;;;;6.57;2.38;;;;;;;19.81;100.00;102126.88;4992552;28;20034;-62
2023/07/10 00:23:07;;;;;;;7.13;2.60;;;;;;;19.80;100.00;102117.97;5006001;28;20030;-60
2023/07/10 00:25:32;;;;;;;9.80;3.50;;;;;;;19.85;100.00;102115.06;4989953;28;20075;-62
2023/07/10 00:27:58;;;;;;;14.15;3.08;;;;;;;19.93;100.00;102136.06;4991838;28;20029;-61
2023/07/10 00:30:24;;;;;;;7.45;3.13;;;;;;;19.93;100.00;102139.56;4990280;28;20109;-63
2023/07/10 00:32:54;;;;;;;8.00;3.08;;;;;;;20.01;100.00;102143.69;4991077;28;20037;-62
2023/07/10 00:35:24;;;;;;;8.60;3.00;;;;;;;20.02;100.00;102134.72;5005856;28;20038;-61
2023/07/10 00:38:02;;;;;;;6.15;3.15;;;;;;;20.01;100.00;102136.53;5008964;28;20474;-61
2023/07/10 00:40:30;;;;;;;10.80;3.75;;;;;;;20.04;100.00;102132.81;5009083;28;20037;-63
2023/07/10 00:43:00;;;;;;;8.35;3.42;;;;;;;20.02;100.00;102138.25;5011057;28;20030;-62
2023/07/10 00:45:26;;;;;;;4.38;3.22;;;;;;;20.05;100.00;102137.25;5007720;28;20521;-62
2023/07/10 00:48:04;;;;;;;9.32;3.80;;;;;;;20.03;100.00;102137.31;5010231;28;20103;-62
2023/07/10 00:50:35;;;;;;;7.72;3.47;;;;;;;20.02;100.00;102132.91;5008396;28;20103;-62
2023/07/10 00:53:02;;;;;;;9.45;3.78;;;;;;;19.94;100.00;102130.63;5009402;28;20037;-62
2023/07/10 00:55:31;;;;;;;7.72;3.78;;;;;;;19.90;100.00;102134.38;5024421;28;20552;-62
2023/07/10 00:58:28;;;;;;;9.52;3.55;;;;;;;19.84;100.00;102137.41;5008998;28;20087;-62
2023/07/10 01:01:09;;;;;;;8.40;3.60;;;;;;;19.79;100.00;102136.78;5008843;28;20049;-63
2023/07/10 01:03:36;;;;;;;11.70;3.05;;;;;;;19.75;100.00;102140.56;5009218;28;20041;-62
2023/07/10 01:06:23;;;;;;;9.05;3.53;;;;;;;19.69;100.00;102147.09;5009366;28;20032;-64
2023/07/10 01:09:05;;;;;;;13.50;3.72;;;;;;;19.68;100.00;102137.31;5008218;28;20480;-61
2023/07/10 01:11:32;;;;;;;7.65;3.38;;;;;;;19.62;100.00;102130.50;5009569;28;20113;-62
2023/07/10 01:13:58;;;;;;;9.38;3.22;;;;;;;19.57;100.00;102136.06;5008813;28;20026;-63
2023/07/10 01:16:25;;;;;;;8.63;3.20;;;;;;;19.50;100.00;102141.84;5010237;28;20029;-62
2023/07/10 01:18:51;;;;;;;10.05;3.30;;;;;;;19.42;100.00;102139.56;5001461;28;20446;-62
2023/07/10 01:21:27;;;;;;;7.85;3.13;;;;;;;19.37;100.00;102139.78;5005404;28;20076;-62
2023/07/10 01:23:53;;;;;;;7.47;3.50;;;;;;;19.26;100.00;102134.13;4995214;28;20026;-64
2023/07/10 01:26:18;;;;;;;12.30;3.70;;;;;;;19.22;100.00;102145.88;5008822;28;20544;-62
2023/07/10 01:28:45;;;;;;;6.70;3.05;;;;;;;19.16;100.00;102142.59;5008459;28;20037;-61
2023/07/10 01:31:12;;;;;;;11.75;3.55;;;;;;;19.15;100.00;102142.69;5009846;28;20075;-62
2023/07/10 01:33:41;;;;;;;10.23;3.67;;;;;;;19.14;100.00;102138.28;5009514;28;20057;-62
2023/07/10 01:36:09;;;;;;;8.00;3.70;;;;;;;19.09;100.00;102138.50;5024561;28;20026;-61
2023/07/10 01:38:42;;;;;;;8.38;3.53;;;;;;;19.08;100.00;102128.75;5020024;28;20049;-61
2023/07/10 01:41:36;;;;;;;10.13;3.42;;;;;;;19.02;100.00;102134.38;4988864;28;20027;-63
2023/07/10 01:44:07;;;;;;;6.78;3.30;;;;;;;18.93;100.00;102125.88;4986529;28;20142;-62
2023/07/10 01:46:32;;;;;;;8.52;3.95;;;;;;;18.92;100.00;102126.81;4988805;28;20367;-63
2023/07/10 01:48:59;;;;;;;9.30;4.10;;;;;;;18.90;100.00;102128.69;4990099;28;20113;-63
2023/07/10 01:51:25;;;;;;;10.60;4.13;;;;;;;18.90;100.00;102127.84;4989921;28;20077;-62
2023/07/10 01:53:50;;;;;;;6.38;4.00;;;;;;;18.86;100.00;102135.13;4996069;28;20065;-61
2023/07/10 01:56:18;;;;;;;10.10;4.05;;;;;;;18.86;100.00;102132.44;5009522;28;20140;-61
2023/07/10 01:58:44;;;;;;;8.65;4.13;;;;;;;18.86;100.00;102131.56;5007275;28;20025;-61
2023/07/10 02:01:09;;;;;;;11.60;4.30;;;;;;;18.84;100.00;102128.97;5007427;28;20033;-62
2023/07/10 02:03:35;;;;;;;8.18;4.18;;;;;;;18.78;100.00;102123.97;5008932;28;20451;-62
2023/07/10 02:06:00;;;;;;;9.65;4.05;;;;;;;18.75;100.00;102132.13;5007914;28;20034;-61
2023/07/10 02:08:26;;;;;;;8.88;3.42;;;;;;;18.75;100.00;102134.78;5009578;28;20030;-63
2023/07/10 02:10:52;;;;;;;10.73;3.97;;;;;;;18.74;100.00;102136.59;5008876;28;20101;-61
2023/07/10 02:13:17;;;;;;;8.27;3.40;;;;;;;18.71;100.00;102133.19;5008535;28;20382;-62
2023/07/10 02:15:42;;;;;;;8.80;3.45;;;;;;;18.68;100.00;102129.75;5006692;28;20026;-62
2023/07/10 02:18:08;;;;;;;8.05;3.80;;;;;;;18.60;100.00;102131.03;4989608;28;20031;-62
2023/07/10 02:20:33;;;;;;;6.60;3.20;;;;;;;18.58;100.00;102133.78;5003893;28;20027;-62
2023/07/10 02:22:58;;;;;;;6.82;3.30;;;;;;;18.56;100.00;102119.63;4992919;28;20033;-61
2023/07/10 02:25:24;;;;;;;11.43;3.40;;;;;;;18.52;100.00;102120.72;5013407;28;20132;-61
2023/07/10 02:27:49;;;;;;;5.53;3.03;;;;;;;18.53;100.00;102119.78;5011588;28;20030;-61
2023/07/10 02:30:15;;;;;;;8.00;4.10;;;;;;;18.55;100.00;102121.44;5012903;28;20076;-60
2023/07/10 02:32:40;;;;;;;6.60;3.00;;;;;;;18.59;100.00;102116.81;5012914;28;20450;-61
2023/07/10 02:35:06;;;;;;;9.52;3.50;;;;;;;18.60;100.00;102115.88;5012546;28;20145;-62
2023/07/10 02:37:31;;;;;;;8.95;3.72;;;;;;;18.58;100.00;102120.44;5012338;28;20398;-62
2023/07/10 02:39:57;;;;;;;7.78;3.33;;;;;;;18.59;100.00;102116.81;5013468;28;20498;-62
2023/07/10 02:42:23;;;;;;;7.40;3.30;;;;;;;18.53;100.00;102111.78;5012426;28;20032;-62
2023/07/10 02:44:48;;;;;;;8.65;3.30;;;;;;;18.52;100.00;102108.25;5012199;28;20087;-62
2023/07/10 02:47:14;;;;;;;7.45;3.45;;;;;;;18.51;100.00;102116.34;5012986;28;20037;-62
2023/07/10 02:49:39;;;;;;;7.40;3.53;;;;;;;18.47;100.00;102107.59;5011921;28;20148;-65
2023/07/10 02:52:05;;;;;;;6.20;3.40;;;;;;;18.54;100.00;102118.84;5012721;28;20029;-61
2023/07/10 02:54:31;;;;;;;8.32;3.70;;;;;;;18.52;100.00;102118.06;5011178;28;20034;-62
2023/07/10 02:56:56;;;;;;;11.45;3.92;;;;;;;18.56;100.00;102120.50;5012683;28;20083;-62
2023/07/10 02:59:26;;;;;;;11.75;3.60;;;;;;;18.50;100.00;102114.59;5014934;28;20377;-62
2023/07/10 03:01:51;;;;;;;7.93;3.70;;;;;;;18.47;100.00;102118.28;5032316;28;20488;-62
2023/07/10 03:04:16;;;;;;;7.55;3.47;;;;;;;18.48;100.00;102120.00;5031463;28;20017;-61
2023/07/10 03:06:42;;;;;;;9.50;3.53;;;;;;;18.47;100.00;102115.59;5032069;28;20106;-62
2023/07/10 03:09:07;;;;;;;9.20;3.60;;;;;;;18.45;100.00;102120.13;5007933;28;20033;-62
2023/07/10 03:11:32;;;;;;;9.10;3.85;;;;;;;18.41;100.00;102121.22;4991887;28;20057;-63
2023/07/10 03:14:01;;;;;;;7.75;3.40;;;;;;;18.35;100.00;102114.38;4991285;28;20042;-61
2023/07/10 03:16:26;;;;;;;8.38;3.40;;;;;;;18.35;100.00;102122.38;5000259;28;20091;-61
2023/07/10 03:18:51;;;;;;;8.38;3.60;;;;;;;18.33;100.00;102124.25;5011161;28;20022;-62
2023/07/10 03:21:17;;;;;;;8.25;3.15;;;;;;;18.29;100.00;102131.53;5010041;28;20022;-62
2023/07/10 03:23:42;;;;;;;7.20;3.70;;;;;;;18.32;100.00;102138.53;5011990;28;20524;-61
2023/07/10 03:26:08;;;;;;;12.35;3.78;;;;;;;18.30;100.00;102135.94;5011666;28;20372;-61
2023/07/10 03:28:36;;;;;;;4.60;3.25;;;;;;;18.34;100.00;102122.44;5011234;28;20180;-62
2023/07/10 03:31:01;;;;;;;7.25;3.25;;;;;;;18.32;100.00;102133.19;5010932;28;20103;-61
2023/07/10 03:33:26;;;;;;;5.90;3.45;;;;;;;18.32;100.00;102135.88;5011749;28;20073;-61
2023/07/10 03:36:06;;;;;;;9.63;3.70;;;;;;;18.33;100.00;102148.25;5009990;28;20026;-61
2023/07/10 03:38:32;;;;;;;12.20;4.10;;;;;;;18.27;100.00;102140.56;5010801;28;20480;-61
2023/07/10 03:40:58;;;;;;;11.23;3.58;;;;;;;18.31;100.00;102145.66;5011578;28;20352;-62
2023/07/10 03:43:24;;;;;;;5.55;3.15;;;;;;;18.33;100.00;102150.09;5011207;28;20046;-62
2023/07/10 03:45:50;;;;;;;7.05;3.65;;;;;;;18.29;100.00;102154.69;5011352;28;20018;-63
2023/07/10 03:48:15;;;;;;;7.18;3.50;;;;;;;18.26;100.00;102160.16;5010552;28;20037;-62
2023/07/10 03:50:41;;;;;;;12.70;3.60;;;;;;;18.29;100.00;102155.56;5007859;28;20050;-65
2023/07/10 03:53:06;;;;;;;10.05;3.80;;;;;;;18.30;100.00;102151.94;4991918;28;20112;-61
2023/07/10 03:55:32;;;;;;;7.75;3.58;;;;;;;18.27;100.00;102149.41;4991086;28;20022;-63
2023/07/10 03:57:57;;;;;;;7.93;3.38;;;;;;;18.29;100.00;102154.69;4991234;28;20107;-62
2023/07/10 04:00:22;;;;;;;7.03;3.05;;;;;;;18.29;100.00;102160.88;4991257;28;20030;-62
2023/07/10 04:02:48;;;;;;;8.57;3.50;;;;;;;18.28;100.00;102164.50;4990921;28;20030;-62
2023/07/10 04:05:13;;;;;;;7.28;3.10;;;;;;;18.26;100.00;102162.81;4991793;28;20069;-60
2023/07/10 04:07:38;;;;;;;7.07;3.05;;;;;;;18.27;100.00;102169.91;4999545;28;20033;-62
2023/07/10 04:10:04;;;;;;;11.52;3.80;;;;;;;18.24;100.00;102170.88;5009966;28;20409;-62
2023/07/10 04:12:29;;;;;;;8.90;3.65;;;;;;;18.29;100.00;102166.22;5009744;28;20030;-61
2023/07/10 04:14:55;;;;;;;8.80;3.60;;;;;;;18.33;100.00;102171.41;5010672;28;20033;-62
2023/07/10 04:17:20;;;;;;;9.88;3.88;;;;;;;18.34;100.00;102175.81;5010002;28;20040;-65
2023/07/10 04:19:46;;;;;;;9.57;3.58;;;;;;;18.39;100.00;102180.00;5010301;28;20050;-65
2023/07/10 04:22:11;;;;;;;9.18;3.40;;;;;;;18.42;100.00;102182.53;5010004;28;20112;-63
2023/07/10 04:24:36;;;;;;;13.63;3.60;;;;;;;18.52;100.00;102192.78;5010635;28;20034;-63
2023/07/10 04:27:02;;;;;;;7.38;3.17;;;;;;;18.57;100.00;102185.41;5009970;28;20115;-63
2023/07/10 04:29:27;;;;;;;10.27;3.40;;;;;;;18.65;100.00;102188.59;5010286;28;20026;-63
2023/07/10 04:31:54;;;;;;;12.73;3.33;;;;;;;18.68;100.00;102177.78;5010739;28;20053;-63
2023/07/10 04:34:19;;;;;;;6.82;3.33;;;;;;;18.68;100.00;102180.47;5003818;28;20034;-62
2023/07/10 04:36:45;;;;;;;10.98;3.30;;;;;;;18.74;100.00;102186.44;5004043;28;20038;-63
2023/07/10 04:39:10;;;;;;;14.00;3.42;;;;;;;18.81;100.00;102185.19;5005358;28;20397;-63
2023/07/10 04:41:37;;;;;;;14.23;3.65;;;;;;;18.98;100.00;102183.53;5010495;28;20030;-63
2023/07/10 04:44:03;;;;;;;7.75;3.35;;;;;;;18.94;100.00;102188.16;5009305;28;20057;-62
2023/07/10 04:46:28;;;;;;;9.13;3.42;;;;;;;19.04;100.00;102184.09;5000953;28;20064;-63
2023/07/10 04:48:54;;;;;;;9.85;3.45;;;;;;;19.09;100.00;102191.94;5006166;28;20080;-63
2023/07/10 04:51:19;;;;;;;7.60;3.15;;;;;;;19.22;100.00;102192.19;5012982;28;20040;-62
2023/07/10 04:53:45;;;;;;;9.57;3.38;;;;;;;19.25;100.00;102185.81;5021139;28;20532;-62
2023/07/10 04:56:12;;;;;;;8.98;3.08;;;;;;;19.31;100.00;102189.06;5016884;28;20539;-63
2023/07/10 04:58:58;;;;;;;7.32;3.13;;;;;;;19.38;100.00;102181.59;5008940;28;20046;-63
2023/07/10 05:01:28;;;;;;;8.27;2.90;;;;;;;19.33;100.00;102178.31;5002804;28;20057;-61
2023/07/10 05:03:54;;;;;;;5.50;2.63;;;;;;;19.42;100.00;102179.66;4994542;28;20065;-61
2023/07/10 05:06:19;;;;;;;7.93;3.10;;;;;;;19.49;100.00;102186.41;5009284;28;20038;-62
2023/07/10 05:08:46;;;;;;;6.93;2.67;;;;;;;19.54;100.00;102186.19;5001617;28;20092;-61
2023/07/10 05:11:11;;;;;;;9.80;2.85;;;;;;;19.62;100.00;102183.97;5008583;28;20510;-60
2023/07/10 05:13:37;;;;;;;7.25;2.95;;;;;;;19.62;100.00;102186.63;5007357;28;20121;-60
2023/07/10 05:16:03;;;;;;;4.47;2.40;;;;;;;19.63;100.00;102183.00;5009338;28;20022;-62
2023/07/10 05:18:29;;;;;;;4.80;2.55;;;;;;;19.64;100.00;102178.53;5008790;28;20160;-60
2023/07/10 05:20:56;;;;;;;7.60;2.60;;;;;;;19.74;100.00;102181.63;5010154;28;20475;-62
2023/07/10 05:23:22;;;;;;;8.93;2.50;;;;;;;19.79;100.00;102187.59;5003068;28;20033;-62
2023/07/10 05:26:14;;;;;;;10.43;2.47;;;;;;;19.87;100.00;102188.03;4990176;28;20026;-63
2023/07/10 05:28:40;;;;;;;9.95;2.75;;;;;;;19.93;100.00;102187.72;5002256;28;20046;-61
2023/07/10 05:31:07;;;;;;;7.32;2.75;;;;;;;19.94;100.00;102183.25;4989222;28;20022;-62
2023/07/10 05:33:33;;;;;;;8.40;2.97;;;;;;;19.83;100.00;102191.81;5007202;28;20018;-60
2023/07/10 05:36:01;;;;;;;10.95;3.10;;;;;;;19.86;100.00;102191.66;5008942;28;20088;-62
2023/07/10 05:38:29;;;;;;;5.50;2.67;;;;;;;19.92;100.00;102179.78;5000454;28;20040;-59
2023/07/10 05:40:54;;;;;;;11.10;2.85;;;;;;;20.10;100.00;102185.16;4994946;28;20558;-62
2023/07/10 05:43:21;;;;;;;8.02;2.67;;;;;;;20.12;100.00;102183.25;5007014;28;20102;-57
2023/07/10 05:45:47;;;;;;;9.52;2.53;;;;;;;20.19;100.00;102193.53;5006030;28;20022;-59
2023/07/10 05:48:13;;;;;;;8.82;2.80;;;;;;;20.25;100.00;102189.66;5008280;28;20399;-64
2023/07/10 05:50:38;;;;;;;9.38;2.78;;;;;;;20.27;100.00;102185.13;5007744;28;20141;-60
2023/07/10 05:53:04;;;;;;;13.75;2.53;;;;;;;20.36;100.00;102194.44;5005477;28;20022;-60
2023/07/10 05:55:30;;;;;;;9.02;2.80;;;;;;;20.35;100.00;102199.88;4997759;28;20026;-64
2023/07/10 05:57:55;;;;;;;11.82;2.90;;;;;;;20.42;100.00;102204.84;5007180;28;20385;-62
2023/07/10 06:00:21;;;;;;;9.75;3.10;;;;;;;20.52;100.00;102205.19;5007606;28;20061;-63
2023/07/10 06:02:46;;;;;;;7.88;2.80;;;;;;;20.57;100.00;102202.25;5008672;28;20030;-64
2023/07/10 06:05:12;;;;;;;12.45;3.08;;;;;;;20.57;100.00;102219.19;4994562;28;20117;-64
2023/07/10 06:07:37;;;;;;;9.90;2.75;;;;;;;20.57;100.00;102223.69;4989299;28;20391;-59
2023/07/10 06:10:03;;;;;;;11.90;2.83;;;;;;;20.70;100.00;102210.47;4988770;28;20081;-60
2023/07/10 06:12:29;;;;;;;9.25;2.47;;;;;;;20.73;100.00;102221.00;4987793;28;20169;-60
2023/07/10 06:14:54;;;;;;;12.50;3.17;;;;;;;20.65;100.00;102215.22;4988523;28;20034;-58
2023/07/10 06:17:20;;;;;;;7.90;2.42;;;;;;;20.69;100.00;102208.75;4990333;28;20470;-60
2023/07/10 06:19:45;;;;;;;14.18;3.40;;;;;;;20.77;100.00;102213.69;4990434;28;20503;-60
2023/07/10 06:22:12;;;;;;;10.57;2.45;;;;;;;20.76;100.00;102222.66;4989426;28;20030;-59
2023/07/10 06:24:38;;;;;;;10.63;2.78;;;;;;;20.74;100.00;102216.53;4988188;28;20030;-59
2023/07/10 06:27:05;;;;;;;9.95;2.63;;;;;;;20.90;100.00;102217.44;5005060;28;20026;-58
2023/07/10 06:29:31;;;;;;;8.63;2.47;;;;;;;20.99;100.00;102217.84;5006035;28;20030;-57
2023/07/10 06:31:57;;;;;;;16.90;2.95;;;;;;;20.99;100.00;102223.22;5007862;28;20026;-63
2023/07/10 06:34:22;;;;;;;10.23;2.53;;;;;;;21.00;100.00;102219.56;5000557;28;20045;-63
2023/07/10 06:36:47;;;;;;;12.65;2.47;;;;;;;20.99;100.00;102228.56;4998455;28;20018;-64
2023/07/10 06:39:13;;;;;;;10.20;2.80;;;;;;;20.99;100.00;102231.25;5007085;28;20041;-62
2023/07/10 06:41:38;;;;;;;9.23;3.05;;;;;;;21.09;100.00;102224.41;5007461;28;20546;-61
2023/07/10 06:44:04;;;;;;;10.98;2.72;;;;;;;21.15;100.00;102229.44;4992915;28;20034;-57
2023/07/10 06:46:29;;;;;;;7.95;2.53;;;;;;;21.21;100.00;102237.13;4989008;28;20025;-63
2023/07/10 06:48:54;;;;;;;9.32;2.10;;;;;;;21.32;100.00;102239.19;4992344;28;20109;-63
2023/07/10 06:51:20;;;;;;;9.52;2.20;;;;;;;21.51;100.00;102237.25;5008105;28;20482;-60
2023/07/10 06:53:45;;;;;;;10.65;2.40;;;;;;;21.30;100.00;102243.78;5007811;28;20058;-61
2023/07/10 06:56:11;;;;;;;10.00;2.25;;;;;;;21.40;100.00;102240.56;5009130;28;20025;-61
2023/07/10 06:58:36;;;;;;;9.52;2.30;;;;;;;21.43;100.00;102246.59;4994781;28;20035;-62
2023/07/10 07:01:02;;;;;;;16.52;2.60;;;;;;;21.59;100.00;102243.03;4989566;28;20101;-62
2023/07/10 07:03:28;;;;;;;9.82;2.88;;;;;;;21.66;100.00;102248.88;4995302;28;20033;-61
2023/07/10 07:05:53;;;;;;;18.75;2.92;;;;;;;21.69;100.00;102260.31;5009335;28;20034;-63
2023/07/10 07:08:20;;;;;;;10.85;2.15;;;;;;;21.69;100.00;102252.25;5007362;28;20021;-62
2023/07/10 07:10:50;;;;;;;10.07;2.45;;;;;;;21.77;100.00;102257.22;5011184;28;20033;-63
2023/07/10 07:13:16;;;;;;;6.45;2.17;;;;;;;21.87;100.00;102251.28;5010943;28;20029;-61
2023/07/10 07:15:41;;;;;;;9.88;2.67;;;;;;;21.75;100.00;102258.19;5012451;28;20030;-62
2023/07/10 07:18:07;;;;;;;7.13;2.30;;;;;;;21.82;100.00;102262.28;5004010;28;20085;-62
2023/07/10 07:20:33;;;;;;;11.30;2.58;;;;;;;21.95;100.00;102254.38;4992385;28;20033;-62
2023/07/10 07:22:58;;;;;;;9.48;2.40;;;;;;;22.05;100.00;102250.19;4992423;28;20537;-62
2023/07/10 07:25:24;;;;;;;8.15;2.00;;;;;;;21.89;100.00;102260.09;4992051;28;20431;-62
2023/07/10 07:27:50;;;;;;;8.75;2.10;;;;;;;21.96;100.00;102256.09;5005506;28;20057;-66
2023/07/10 07:30:15;;;;;;;8.95;2.10;;;;;;;22.18;100.00;102258.34;5011739;28;20034;-63
2023/07/10 07:32:41;;;;;;;10.52;2.92;;;;;;;22.14;100.00;102248.75;5006124;28;20059;-61
2023/07/10 07:35:06;;;;;;;6.55;2.10;;;;;;;22.18;100.00;102258.34;4992823;28;20477;-61
2023/07/10 07:37:32;;;;;;;11.70;2.40;;;;;;;22.16;99.68;102257.59;5002538;28;20038;-63
2023/07/10 07:40:00;;;;;;;13.88;2.53;;;;;;;22.21;99.57;102257.28;5011010;28;20105;-61
2023/07/10 07:42:26;;;;;;;10.25;2.38;;;;;;;22.25;100.00;102249.91;5010551;28;20083;-61
2023/07/10 07:44:51;;;;;;;8.70;2.53;;;;;;;22.38;98.75;102255.38;5011307;28;20025;-63
2023/07/10 07:47:17;;;;;;;12.02;2.40;;;;;;;22.35;97.60;102259.13;5009286;28;20033;-60
2023/07/10 07:49:42;;;;;;;5.90;1.98;;;;;;;22.45;97.35;102252.22;4992925;28;20122;-62
2023/07/10 07:52:08;;;;;;;6.63;1.98;;;;;;;22.57;97.05;102249.72;4991315;28;20524;-62
2023/07/10 07:54:33;;;;;;;11.70;2.00;;;;;;;22.56;96.79;102251.56;5007044;28;20022;-62
2023/07/10 07:56:59;;;;;;;5.13;1.83;;;;;;;22.45;95.10;102254.91;5010691;28;20050;-61
2023/07/10 07:59:24;;;;;;;8.55;1.85;;;;;;;22.59;93.22;102251.41;4996850;28;20045;-61
2023/07/10 08:01:50;;;;;;;10.43;2.20;;;;;;;22.61;93.75;102256.66;5015113;28;20026;-61
2023/07/10 08:04:18;;;;;;;11.27;2.00;;;;;;;22.61;91.59;102245.06;5011016;28;20030;-61
2023/07/10 08:06:43;;;;;;;10.98;2.17;;;;;;;22.58;92.81;102251.50;5025403;28;20065;-62
2023/07/10 08:09:08;;;;;;;12.00;1.98;;;;;;;22.69;90.12;102243.59;5010672;28;20049;-64
2023/07/10 08:11:34;;;;;;;13.45;2.17;;;;;;;22.65;91.23;102250.13;5010767;28;20124;-64
2023/07/10 08:13:59;;;;;;;12.07;2.13;;;;;;;22.77;92.68;102255.69;5010777;28;20076;-64
2023/07/10 08:16:25;;;;;;;14.27;2.63;;;;;;;22.62;93.08;102254.84;5002936;28;20388;-63
2023/07/10 08:18:50;;;;;;;11.23;2.10;;;;;;;22.77;92.44;102247.63;4991413;28;20084;-63
2023/07/10 08:21:17;;;;;;;11.88;2.78;;;;;;;22.79;91.74;102256.47;4990697;28;20106;-64
2023/07/10 08:23:43;;;;;;;6.93;2.03;;;;;;;22.71;92.77;102260.50;4992255;28;20757;-63
2023/07/10 08:26:08;;;;;;;6.45;1.80;;;;;;;22.85;91.44;102256.06;4991089;28;20022;-64
2023/07/10 08:28:34;;;;;;;9.50;2.00;;;;;;;22.89;91.95;102260.28;4989051;28;20089;-64
2023/07/10 08:30:59;;;;;;;7.82;2.00;;;;;;;23.06;92.28;102248.41;4991248;28;20032;-64
2023/07/10 08:33:25;;;;;;;16.00;2.55;;;;;;;23.08;90.84;102253.69;4990941;28;20045;-62
2023/07/10 08:35:58;;;;;;;9.93;2.10;;;;;;;23.14;89.45;102253.31;4990705;28;20117;-63
2023/07/10 08:38:24;;;;;;;7.25;1.85;;;;;;;23.23;91.31;102251.84;4992583;28;20129;-61
2023/07/10 08:40:53;;;;;;;11.63;2.28;;;;;;;23.32;90.91;102239.59;4991082;28;20109;-60
2023/07/10 08:43:25;;;;;;;10.80;2.33;;;;;;;23.33;90.92;102247.56;5007563;28;20406;-60
2023/07/10 08:45:50;;;;;;;15.25;2.80;;;;;;;23.23;90.66;102247.31;5010098;28;20048;-60
2023/07/10 08:48:25;;;;;;;12.85;2.75;;;;;;;23.34;92.46;102259.19;5025365;28;20561;-60
2023/07/10 08:50:51;;;;;;;10.35;2.08;;;;;;;23.35;93.10;102250.16;5008243;28;20103;-58
2023/07/10 08:53:23;;;;;;;9.82;2.22;;;;;;;23.37;92.80;102255.47;5006116;28;20014;-59
2023/07/10 08:56:00;;;;;;;17.27;2.35;;;;;;;23.43;89.97;102249.69;5010481;28;20037;-59
2023/07/10 08:58:30;;;;;;;13.30;2.40;;;;;;;23.44;91.50;102249.59;5009078;28;20076;-60
2023/07/10 09:00:59;;;;;;;11.73;2.13;;;;;;;23.55;91.52;102253.38;5001920;28;20084;-61
2023/07/10 09:03:39;;;;;;;7.30;1.88;;;;;;;23.61;88.96;102258.34;4995127;28;20096;-57
2023/07/10 09:06:04;;;;;;;10.63;2.22;;;;;;;23.63;89.01;102258.25;5029946;28;20029;-61
2023/07/10 09:08:31;;;;;;;11.70;2.25;;;;;;;23.56;88.93;102264.03;5025468;28;20048;-60
2023/07/10 09:11:01;;;;;;;11.70;2.70;;;;;;;23.67;87.03;102257.94;5010293;28;20030;-61
2023/07/10 09:13:39;;;;;;;7.47;2.30;;;;;;;23.50;87.83;102258.22;5008109;28;20034;-62
2023/07/10 09:16:13;;;;;;;10.77;2.70;;;;;;;23.76;90.23;102269.91;5009722;28;20022;-60
2023/07/10 09:18:44;;;;;;;6.13;1.88;;;;;;;23.88;86.84;102264.63;5009506;28;20041;-60
2023/07/10 09:21:39;;;;;;;9.20;1.85;;;;;;;24.05;86.10;102263.50;5008826;28;20026;-63
2023/07/10 09:24:05;;;;;;;11.75;2.25;;;;;;;23.95;85.95;102277.59;4988763;28;20116;-61
2023/07/10 09:26:38;;;;;;;5.78;2.00;;;;;;;23.87;86.92;102263.78;4990739;28;20023;-59
2023/07/10 09:29:09;;;;;;;9.77;2.00;;;;;;;24.07;86.85;102261.53;4988581;28;20479;-60
2023/07/10 09:31:54;;;;;;;10.93;2.25;;;;;;;24.16;85.58;102255.56;4990404;28;20025;-59
2023/07/10 09:34:22;;;;;;;8.23;2.17;;;;;;;24.40;84.60;102248.53;4989845;28;20030;-59
2023/07/10 09:36:52;;;;;;;7.63;1.73;;;;;;;24.58;84.76;102244.53;4988307;28;20026;-60
2023/07/10 09:39:18;;;;;;;7.13;1.90;;;;;;;24.84;84.16;102238.22;4990441;28;20124;-59
2023/07/10 09:41:44;;;;;;;8.82;1.90;;;;;;;25.07;83.58;102243.78;5004531;28;20110;-61
2023/07/10 09:44:20;;;;;;;6.13;1.90;;;;;;;25.13;83.99;102254.09;4991647;28;20046;-60
2023/07/10 09:46:47;;;;;;;6.32;1.80;;;;;;;25.40;82.21;102254.88;4987499;28;20430;-60
2023/07/10 09:49:16;;;;;;;8.77;2.22;;;;;;;25.24;81.87;102254.19;4988302;28;20559;-59
2023/07/10 09:51:56;;;;;;;8.85;2.08;;;;;;;25.35;82.19;102255.22;4996375;28;20034;-61
2023/07/10 09:54:22;;;;;;;11.98;2.20;;;;;;;25.65;81.28;102253.03;4988372;28;20062;-62
2023/07/10 09:56:48;;;;;;;8.88;2.35;;;;;;;25.80;80.67;102253.69;4988660;28;20022;-61
2023/07/10 09:59:19;;;;;;;11.18;2.30;;;;;;;26.11;81.67;102259.41;5001392;28;20118;-60
2023/07/10 10:01:47;;;;;;;8.15;2.33;;;;;;;26.07;80.22;102261.47;5008537;28;20026;-59
2023/07/10 10:04:12;;;;;;;7.55;2.33;;;;;;;25.88;80.18;102264.75;5006280;28;20474;-61
2023/07/10 10:06:40;;;;;;;9.05;2.45;;;;;;;25.88;80.59;102259.34;4995100;28;20037;-60
2023/07/10 10:09:22;;;;;;;12.88;2.40;;;;;;;25.67;82.28;102257.31;5005950;28;20021;-59
2023/07/10 10:11:50;;;;;;;4.65;2.00;;;;;;;25.96;81.46;102259.63;4993939;28;20101;-61
2023/07/10 10:14:21;;;;;;;8.15;2.05;;;;;;;26.08;78.67;102255.09;5000568;28;20018;-60
2023/07/10 10:16:53;;;;;;;6.93;1.92;;;;;;;26.16;78.14;102253.63;5006396;28;20037;-59
2023/07/10 10:19:35;;;;;;;10.48;2.15;;;;;;;26.23;72.79;102255.72;4992402;28;20053;-60
2023/07/10 10:22:00;;;;;;;8.85;2.65;;;;;;;25.89;72.10;102258.38;5006583;28;20044;-62
2023/07/10 10:24:27;;;;;;;11.30;2.30;;;;;;;25.79;71.03;102260.06;5004686;28;20490;-60
2023/07/10 10:26:59;;;;;;;7.53;1.90;;;;;;;25.89;70.44;102255.69;4992367;28;20626;-61
2023/07/10 10:29:43;;;;;;;8.02;1.90;;;;;;;25.98;70.12;102260.34;5007380;28;20097;-61
2023/07/10 10:32:15;;;;;;;8.80;2.70;;;;;;;25.95;70.58;102265.13;4999795;28;20068;-60
2023/07/10 10:34:49;;;;;;;8.52;2.15;;;;;;;25.67;71.21;102265.41;5005512;28;20038;-60
2023/07/10 10:37:46;;;;;;;6.45;2.10;;;;;;;25.78;69.60;102263.72;5003464;28;20034;-60
2023/07/10 10:40:23;;;;;;;10.88;2.05;;;;;;;25.92;71.57;102268.94;4999773;28;20045;-61
2023/07/10 10:43:29;;;;;;;7.00;2.20;;;;;;;25.74;71.87;102273.91;4996348;28;20431;-61
2023/07/10 10:46:02;;;;;;;8.27;2.22;;;;;;;25.71;72.46;102283.09;5008229;28;20029;-60
2023/07/10 10:48:46;;;;;;;11.55;2.38;;;;;;;25.61;72.49;102277.53;4999987;28;20026;-60
2023/07/10 10:51:42;;;;;;;5.55;1.92;;;;;;;25.66;71.97;102289.81;4992902;28;20046;-60
2023/07/10 10:54:23;;;;;;;5.25;2.10;;;;;;;25.68;73.60;102274.38;4997174;28;20498;-60
2023/07/10 10:57:07;;;;;;;5.55;1.42;;;;;;;25.88;72.30;102272.84;5000355;28;20034;-60
2023/07/10 10:59:35;;;;;;;11.57;2.28;;;;;;;25.90;71.91;102273.59;4992453;28;20137;-60
2023/07/10 11:02:19;;;;;;;8.23;2.08;;;;;;;25.96;72.32;102262.31;4991439;28;20468;-61
2023/07/10 11:04:48;;;;;;;12.60;2.33;;;;;;;26.10;72.90;102263.09;4994286;28;20121;-70
2023/07/10 11:07:16;;;;;;;7.57;1.90;;;;;;;26.31;72.31;102267.81;4997174;28;20030;-67
2023/07/10 11:09:46;;;;;;;7.45;1.95;;;;;;;26.54;69.82;102265.09;5004453;28;20410;-68
2023/07/10 11:12:23;;;;;;;5.63;1.80;;;;;;;26.27;68.97;102258.19;4995268;28;20027;-70
2023/07/10 11:14:51;;;;;;;9.13;2.10;;;;;;;26.23;69.60;102268.38;4989817;28;20026;-68
2023/07/10 11:17:16;;;;;;;11.00;1.93;;;;;;;26.02;69.60;102266.38;4993147;28;20522;-68
2023/07/10 11:19:42;;;;;;;6.32;1.92;;;;;;;25.94;71.56;102260.69;5011581;28;20060;-68
2023/07/10 11:22:26;;;;;;;7.22;2.33;;;;;;;25.78;69.10;102261.91;5010014;28;20028;-65